Terminal Aerodrome Forecast
Issued by NWS Columbia, SC

Home | Current Version | Previous Version | Text Only | Print | Product List | Glossary On
Versions: 1 2 3 4 5 6 7 8 9 10 11 12 13 14 15 16 17 18 19 20 21 22 23 24 25 26 27 28 29 30 31 32 33 34 35 36 37
000
FTUS42 KCAE 241153 CCA
TAFCAE
TAF COR
KCAE 241153Z 2412/2512 20005KT P6SM BKN009 OVC015
     FM241400 20010KT P6SM BKN015
     FM241600 20012G18KT P6SM VCSH BKN025
     FM241900 20012G20KT P6SM VCTS BKN035CB
      TEMPO 2419/2423 3SM SHRA BKN025
     FM250200 23010KT P6SM SCT040=

USA.gov is the U.S. government's official web portal to all federal, state and local government web resources and services.